Time;durP1;ratioP1;P1;durP2;ratioP2;P2;SDS_P1;SDS_P2;PMS_P1;PMS_P2;Temp;Humidity;BMP_temperature;BMP_pressure;BME280_temperature;BME280_humidity;BME280_pressure;Samples;Min_cycle;Max_cycle;Signal;HPM_P1;HPM_P2
2022/06/28 00:00:34;;;;;;;3.17;2.70;;;14.80;99.90;;;;;;5046343;28;20289;-68
2022/06/28 00:03:00;;;;;;;3.27;2.43;;;14.70;99.90;;;;;;5040815;28;20200;-66
2022/06/28 00:05:27;;;;;;;4.63;2.70;;;14.60;99.90;;;;;;5049476;28;20233;-66
2022/06/28 00:07:54;;;;;;;3.10;2.50;;;14.60;99.90;;;;;;5043360;28;20256;-65
2022/06/28 00:10:21;;;;;;;3.90;2.57;;;14.60;99.90;;;;;;5045734;28;20219;-66
2022/06/28 00:12:48;;;;;;;3.33;2.67;;;14.50;99.90;;;;;;5044844;28;20673;-65
2022/06/28 00:18:01;;;;;;;5.63;2.50;;;14.50;99.90;;;;;;5037426;28;20576;-66
2022/06/28 00:20:28;;;;;;;4.77;2.80;;;14.50;99.90;;;;;;5042161;28;20669;-66
2022/06/28 00:22:54;;;;;;;4.30;3.10;;;14.40;99.90;;;;;;5046179;28;20405;-65
2022/06/28 00:25:21;;;;;;;3.40;2.53;;;14.40;99.90;;;;;;5046965;28;20329;-67
2022/06/28 00:27:48;;;;;;;4.50;2.80;;;14.50;99.90;;;;;;5044917;28;20252;-66
2022/06/28 00:30:14;;;;;;;3.73;2.70;;;14.60;99.90;;;;;;5045336;28;20223;-66
2022/06/28 00:32:41;;;;;;;3.13;2.80;;;14.70;99.90;;;;;;5045390;28;20195;-66
2022/06/28 00:35:09;;;;;;;3.27;2.90;;;14.60;99.90;;;;;;5045204;28;20778;-66
2022/06/28 00:37:35;;;;;;;4.80;3.27;;;14.60;99.90;;;;;;5040333;28;20277;-66
2022/06/28 00:40:03;;;;;;;4.50;2.90;;;14.40;99.90;;;;;;5041511;28;20214;-66
2022/06/28 00:42:29;;;;;;;4.83;3.20;;;14.40;99.90;;;;;;5042681;28;20215;-66
2022/06/28 00:44:58;;;;;;;4.13;3.27;;;14.30;99.90;;;;;;5045398;28;20218;-66
2022/06/28 00:47:26;;;;;;;5.07;3.40;;;14.50;99.90;;;;;;5043424;28;20198;-66
2022/06/28 00:49:56;;;;;;;4.47;3.23;;;14.60;99.90;;;;;;5040227;28;20261;-66
2022/06/28 00:52:23;;;;;;;7.40;4.00;;;14.60;99.90;;;;;;5045363;28;20660;-66
2022/06/28 00:54:50;;;;;;;5.37;3.47;;;14.70;99.90;;;;;;5037216;28;20530;-66
2022/06/28 00:57:16;;;;;;;3.40;3.10;;;14.70;99.90;;;;;;5045256;28;20662;-66
2022/06/28 00:59:43;;;;;;;4.83;3.47;;;14.50;99.90;;;;;;5044057;28;20285;-66
2022/06/28 01:02:10;;;;;;;3.83;2.90;;;14.30;99.90;;;;;;5043620;28;20191;-66
2022/06/28 01:04:37;;;;;;;5.97;3.97;;;14.20;99.90;;;;;;5044931;28;20226;-67
2022/06/28 01:07:05;;;;;;;5.30;3.63;;;14.20;99.90;;;;;;5043378;28;20203;-66
2022/06/28 01:09:32;;;;;;;5.57;3.37;;;14.30;99.90;;;;;;5039639;28;20219;-66
2022/06/28 01:11:58;;;;;;;4.83;3.87;;;14.20;99.90;;;;;;5029886;28;20206;-67
2022/06/28 01:14:25;;;;;;;4.67;3.73;;;14.10;99.90;;;;;;5039870;28;20261;-67
2022/06/28 01:16:52;;;;;;;7.43;4.07;;;14.10;99.90;;;;;;5042483;28;20204;-67
2022/06/28 01:19:19;;;;;;;8.37;4.40;;;14.20;99.90;;;;;;5036486;28;20202;-67
2022/06/28 01:21:49;;;;;;;5.30;4.27;;;14.30;99.90;;;;;;5041148;28;20210;-67
2022/06/28 01:24:15;;;;;;;7.53;3.97;;;14.40;99.90;;;;;;5043248;28;20222;-68
2022/06/28 01:26:44;;;;;;;5.77;3.73;;;14.20;99.90;;;;;;5038744;28;20208;-66
2022/06/28 01:29:11;;;;;;;4.43;3.73;;;14.10;99.90;;;;;;5043878;28;20525;-66
2022/06/28 01:31:39;;;;;;;5.47;3.60;;;14.10;99.90;;;;;;5040844;28;20213;-68
2022/06/28 01:34:07;;;;;;;6.50;3.50;;;14.00;99.90;;;;;;5041948;28;20227;-68
2022/06/28 01:36:34;;;;;;;5.47;3.60;;;14.00;99.90;;;;;;5043196;28;20209;-70
2022/06/28 01:39:01;;;;;;;6.27;4.40;;;14.30;99.90;;;;;;5039829;28;20205;-69
2022/06/28 01:41:34;;;;;;;5.47;3.80;;;14.40;99.90;;;;;;5040850;28;20204;-69
2022/06/28 01:44:05;;;;;;;4.67;3.67;;;14.40;99.90;;;;;;5035849;28;20194;-70
2022/06/28 01:46:34;;;;;;;6.33;3.90;;;14.10;99.90;;;;;;5039508;28;20198;-70
2022/06/28 01:49:02;;;;;;;8.90;3.60;;;14.00;99.90;;;;;;5041334;28;20199;-70
2022/06/28 01:51:29;;;;;;;4.40;3.77;;;14.00;99.90;;;;;;5039615;28;20191;-69
2022/06/28 01:53:56;;;;;;;4.17;3.10;;;13.90;99.90;;;;;;5041400;28;20203;-69
2022/06/28 01:56:23;;;;;;;6.03;3.63;;;13.90;99.90;;;;;;5043862;28;20218;-69
2022/06/28 01:58:50;;;;;;;3.70;3.33;;;13.80;99.90;;;;;;5039110;28;20202;-69
2022/06/28 02:01:16;;;;;;;4.43;3.10;;;13.70;99.90;;;;;;5041752;28;20213;-68
2022/06/28 02:03:43;;;;;;;3.60;3.20;;;13.70;99.90;;;;;;5042796;28;20783;-67
2022/06/28 02:06:10;;;;;;;3.87;3.47;;;13.60;99.90;;;;;;5041863;28;20745;-67
2022/06/28 02:08:37;;;;;;;5.53;3.67;;;13.60;99.90;;;;;;5038437;28;20209;-68
2022/06/28 02:11:05;;;;;;;6.23;3.60;;;13.50;99.90;;;;;;5043474;28;20222;-66
2022/06/28 02:13:32;;;;;;;6.33;4.07;;;13.50;99.90;;;;;;5043032;28;20197;-67
2022/06/28 02:15:59;;;;;;;4.23;3.77;;;13.50;99.90;;;;;;5039656;28;20232;-68
2022/06/28 02:18:25;;;;;;;5.03;4.10;;;13.60;99.90;;;;;;5041909;28;20194;-67
2022/06/28 02:20:52;;;;;;;6.57;4.50;;;13.90;99.90;;;;;;5040527;28;20205;-66
2022/06/28 02:23:19;;;;;;;6.80;4.03;;;13.90;99.90;;;;;;5040577;28;20657;-67
2022/06/28 02:25:45;;;;;;;6.57;4.43;;;13.90;99.90;;;;;;5041164;28;20702;-67
2022/06/28 02:28:12;;;;;;;4.93;3.90;;;13.90;99.90;;;;;;5043002;28;20207;-67
2022/06/28 02:30:39;;;;;;;4.80;4.10;;;13.80;99.90;;;;;;5042116;28;20225;-67
2022/06/28 02:33:05;;;;;;;5.83;4.10;;;13.80;99.90;;;;;;5040045;28;20202;-68
2022/06/28 02:41:03;;;;;;;5.17;3.80;;;13.50;99.90;;;;;;5043304;28;20289;-67
2022/06/28 02:43:30;;;;;;;6.37;4.20;;;13.40;99.90;;;;;;5041479;28;20259;-69
2022/06/28 02:45:56;;;;;;;6.07;4.20;;;13.30;99.90;;;;;;5038760;28;20603;-69
2022/06/28 02:48:30;;;;;;;5.53;4.60;;;13.30;99.90;;;;;;5037940;28;20691;-69
2022/06/28 02:50:56;;;;;;;4.77;3.90;;;13.30;99.90;;;;;;5039096;28;20215;-70
2022/06/28 02:53:23;;;;;;;4.47;3.80;;;13.20;99.90;;;;;;5044412;28;20215;-71
2022/06/28 02:55:50;;;;;;;7.00;4.20;;;13.10;99.90;;;;;;5046911;28;20248;-69
2022/06/28 02:58:17;;;;;;;5.57;4.47;;;13.00;99.90;;;;;;5045137;28;20561;-70
2022/06/28 03:00:43;;;;;;;6.13;4.27;;;13.10;99.90;;;;;;5045439;28;20211;-68
2022/06/28 03:03:10;;;;;;;10.50;4.83;;;13.10;99.90;;;;;;5042925;28;20647;-68
2022/06/28 03:05:37;;;;;;;7.53;4.67;;;13.30;99.90;;;;;;5045232;28;20219;-67
2022/06/28 03:08:08;;;;;;;6.33;4.50;;;13.40;99.90;;;;;;5042240;28;20200;-67
2022/06/28 03:10:35;;;;;;;6.83;4.40;;;13.40;99.90;;;;;;5045101;28;20217;-68
2022/06/28 03:13:02;;;;;;;8.40;4.80;;;13.40;99.90;;;;;;5042566;28;20207;-69
2022/06/28 03:15:29;;;;;;;7.57;4.67;;;13.30;99.90;;;;;;5044964;28;20231;-69
2022/06/28 03:17:57;;;;;;;6.00;4.77;;;13.30;99.90;;;;;;5042252;28;20200;-71
2022/06/28 03:20:24;;;;;;;7.43;4.70;;;13.40;99.90;;;;;;5044887;28;20199;-71
2022/06/28 03:22:51;;;;;;;5.63;4.80;;;13.40;99.90;;;;;;5039446;28;20204;-71
2022/06/28 03:25:18;;;;;;;6.10;4.90;;;13.40;99.90;;;;;;5043644;28;20225;-70
2022/06/28 03:27:45;;;;;;;5.43;4.17;;;13.40;99.90;;;;;;5046915;28;20276;-70
2022/06/28 03:30:12;;;;;;;5.17;4.60;;;13.30;99.90;;;;;;5040645;28;20219;-70
2022/06/28 03:32:38;;;;;;;5.40;4.17;;;13.20;99.90;;;;;;5044096;28;20207;-69
2022/06/28 03:35:07;;;;;;;5.93;4.20;;;13.00;99.90;;;;;;5040486;28;20219;-69
2022/06/28 03:37:35;;;;;;;5.17;3.93;;;13.00;99.90;;;;;;5037441;28;20675;-69
2022/06/28 03:40:03;;;;;;;8.83;4.20;;;12.90;99.90;;;;;;5040977;28;20201;-72
2022/06/28 03:42:29;;;;;;;8.10;4.53;;;13.00;99.90;;;;;;5044366;28;20709;-69
2022/06/28 03:44:56;;;;;;;5.23;4.23;;;13.10;99.90;;;;;;5041487;28;20233;-71
2022/06/28 03:47:23;;;;;;;5.77;4.37;;;13.20;99.90;;;;;;5044026;28;20208;-70
2022/06/28 03:49:49;;;;;;;5.93;4.30;;;13.30;99.90;;;;;;5041998;28;20222;-69
2022/06/28 03:52:17;;;;;;;7.70;4.30;;;13.20;99.90;;;;;;5040405;28;20194;-69
2022/06/28 03:54:43;;;;;;;6.17;4.60;;;13.20;99.90;;;;;;5040770;28;20221;-68
2022/06/28 03:57:10;;;;;;;6.33;4.20;;;13.30;99.90;;;;;;5040235;28;20206;-70
2022/06/28 03:59:37;;;;;;;5.30;4.00;;;13.30;99.90;;;;;;5043723;28;20607;-70
2022/06/28 04:02:04;;;;;;;6.67;4.40;;;13.30;99.90;;;;;;5038561;28;20196;-68
2022/06/28 04:04:32;;;;;;;5.53;4.33;;;13.30;99.90;;;;;;5040802;28;20218;-68
2022/06/28 04:06:59;;;;;;;6.57;4.17;;;13.30;99.90;;;;;;5042648;28;20210;-70
2022/06/28 04:09:26;;;;;;;8.00;4.33;;;13.30;99.90;;;;;;5043151;28;20205;-70
2022/06/28 04:11:53;;;;;;;7.43;4.57;;;13.30;99.90;;;;;;5035712;28;20222;-71
2022/06/28 04:14:20;;;;;;;7.50;4.70;;;13.40;99.90;;;;;;5031876;28;20215;-69
2022/06/28 04:16:46;;;;;;;6.03;4.20;;;13.50;99.90;;;;;;5041585;28;20198;-70
2022/06/28 04:19:13;;;;;;;10.57;5.33;;;13.50;99.90;;;;;;5041002;28;20194;-71
2022/06/28 04:21:40;;;;;;;7.00;5.10;;;13.60;99.90;;;;;;5039608;28;20206;-69
2022/06/28 04:24:07;;;;;;;6.90;5.43;;;13.70;99.90;;;;;;5039437;28;20237;-67
2022/06/28 04:26:34;;;;;;;6.80;4.87;;;13.70;99.90;;;;;;5041233;28;20230;-67
2022/06/28 04:29:01;;;;;;;7.70;5.10;;;13.70;99.90;;;;;;5039679;28;20198;-68
2022/06/28 04:31:28;;;;;;;7.63;4.83;;;13.80;99.90;;;;;;5041861;28;20832;-68
2022/06/28 04:33:55;;;;;;;6.60;4.97;;;13.80;99.90;;;;;;5039475;28;20549;-68
2022/06/28 04:36:22;;;;;;;8.43;4.90;;;13.90;99.90;;;;;;5042429;28;20203;-68
2022/06/28 04:38:49;;;;;;;8.87;6.27;;;13.90;99.90;;;;;;5037422;28;20223;-67
2022/06/28 04:41:16;;;;;;;8.07;5.63;;;14.10;99.90;;;;;;5040171;28;20310;-67
2022/06/28 04:43:42;;;;;;;8.33;6.30;;;14.20;99.90;;;;;;5041036;28;20203;-68
2022/06/28 04:46:09;;;;;;;13.27;7.37;;;14.30;99.90;;;;;;5037643;28;20222;-67
2022/06/28 04:48:36;;;;;;;11.33;5.60;;;14.40;99.90;;;;;;5041669;28;20199;-67
2022/06/28 04:51:11;;;;;;;11.80;5.23;;;14.50;99.90;;;;;;5039375;28;20223;-67
2022/06/28 04:53:40;;;;;;;10.53;6.17;;;14.50;99.90;;;;;;5037774;28;20222;-67
2022/06/28 04:56:08;;;;;;;15.13;6.23;;;14.60;99.90;;;;;;5038292;28;20227;-67
2022/06/28 04:58:35;;;;;;;11.47;5.67;;;14.70;99.90;;;;;;5038195;28;20222;-67
2022/06/28 05:01:02;;;;;;;6.97;5.03;;;14.70;99.90;;;;;;5042047;28;20200;-67
2022/06/28 05:03:40;;;;;;;9.27;5.47;;;14.80;99.90;;;;;;5037444;28;20290;-67
2022/06/28 05:06:07;;;;;;;10.17;7.37;;;14.90;99.90;;;;;;5037875;28;20223;-67
2022/06/28 05:08:34;;;;;;;11.63;5.83;;;15.10;99.90;;;;;;5041498;28;20349;-67
2022/06/28 05:11:01;;;;;;;8.87;6.40;;;15.30;99.90;;;;;;5033730;28;20215;-67
2022/06/28 05:13:29;;;;;;;6.30;4.80;;;15.40;99.90;;;;;;5040234;28;20197;-67
2022/06/28 05:15:55;;;;;;;7.40;5.07;;;15.50;99.90;;;;;;5037953;28;20234;-67
2022/06/28 05:18:22;;;;;;;4.77;3.70;;;15.50;99.90;;;;;;5039456;28;20191;-67
2022/06/28 05:20:49;;;;;;;13.07;8.23;;;15.50;99.90;;;;;;5038312;28;20600;-67
2022/06/28 05:23:15;;;;;;;14.43;7.30;;;15.70;99.90;;;;;;5038087;28;20195;-67
2022/06/28 05:25:42;;;;;;;15.07;9.17;;;15.80;99.90;;;;;;5039647;28;20588;-69
2022/06/28 05:28:09;;;;;;;13.00;8.50;;;16.00;99.90;;;;;;5034979;28;20203;-67
2022/06/28 05:30:35;;;;;;;15.37;9.03;;;16.30;99.90;;;;;;5040803;28;20219;-67
2022/06/28 05:33:03;;;;;;;14.93;8.70;;;16.60;99.90;;;;;;5036676;28;20202;-67
2022/06/28 05:35:30;;;;;;;18.17;8.10;;;16.80;99.90;;;;;;5039280;28;20763;-67
2022/06/28 05:37:57;;;;;;;9.50;6.97;;;16.90;99.90;;;;;;5034112;28;20653;-67
2022/06/28 05:40:24;;;;;;;16.50;7.77;;;17.00;99.90;;;;;;5039150;28;20195;-67
2022/06/28 05:42:50;;;;;;;10.40;6.30;;;17.00;99.90;;;;;;5037593;28;20207;-67
2022/06/28 05:45:17;;;;;;;12.07;7.53;;;17.10;99.90;;;;;;5037367;28;20215;-67
2022/06/28 05:47:45;;;;;;;9.17;5.87;;;17.10;99.90;;;;;;5036294;28;20202;-67
2022/06/28 05:50:12;;;;;;;10.30;5.47;;;17.20;99.90;;;;;;5037043;28;20199;-67
2022/06/28 05:52:39;;;;;;;8.50;5.40;;;17.20;99.90;;;;;;5035799;28;20596;-67
2022/06/28 05:55:06;;;;;;;12.80;6.73;;;17.40;99.90;;;;;;5036509;28;20257;-68
2022/06/28 05:57:33;;;;;;;10.47;6.00;;;17.50;99.90;;;;;;5039557;28;20202;-67
2022/06/28 06:00:00;;;;;;;10.87;5.90;;;17.60;99.90;;;;;;5039663;28;20398;-67
2022/06/28 06:02:26;;;;;;;9.83;6.30;;;17.70;99.90;;;;;;5033709;28;20192;-69
2022/06/28 06:04:54;;;;;;;12.43;6.37;;;17.70;99.90;;;;;;5041633;28;20286;-69
2022/06/28 06:07:21;;;;;;;10.67;6.60;;;17.80;99.90;;;;;;5040729;28;20191;-69
2022/06/28 06:09:48;;;;;;;7.80;6.37;;;17.80;99.90;;;;;;5035621;28;20661;-69
2022/06/28 06:12:15;;;;;;;10.70;6.50;;;17.90;99.90;;;;;;5032949;28;20277;-70
2022/06/28 06:14:42;;;;;;;9.13;6.70;;;17.90;99.90;;;;;;5037508;28;20218;-69
2022/06/28 06:17:09;;;;;;;9.40;7.03;;;17.90;99.90;;;;;;5035281;28;20198;-69
2022/06/28 06:19:36;;;;;;;8.50;6.33;;;17.80;99.90;;;;;;5034320;28;20194;-69
2022/06/28 06:22:03;;;;;;;8.13;5.70;;;17.80;99.90;;;;;;5039923;28;20196;-68
2022/06/28 06:24:29;;;;;;;14.03;7.13;;;17.90;99.90;;;;;;5036584;28;20577;-69
2022/06/28 06:26:56;;;;;;;8.77;5.97;;;18.00;99.90;;;;;;5035642;28;20214;-69
2022/06/28 06:29:23;;;;;;;8.97;6.50;;;18.00;99.90;;;;;;5037102;28;20591;-69
2022/06/28 06:31:49;;;;;;;11.17;6.70;;;18.00;99.90;;;;;;5040748;28;20233;-71
2022/06/28 06:34:16;;;;;;;11.67;6.40;;;18.10;99.90;;;;;;5044705;28;20212;-68
2022/06/28 06:36:45;;;;;;;11.70;6.70;;;18.10;99.90;;;;;;5041948;28;20194;-69
2022/06/28 06:39:11;;;;;;;9.77;7.37;;;18.10;99.90;;;;;;5038980;28;20732;-69
2022/06/28 06:41:38;;;;;;;12.37;7.13;;;18.10;99.90;;;;;;5036388;28;20195;-69
2022/06/28 06:44:05;;;;;;;13.77;6.47;;;18.10;99.90;;;;;;5038530;28;20662;-69
2022/06/28 06:46:31;;;;;;;10.60;6.70;;;18.10;99.90;;;;;;5044279;28;20711;-69
2022/06/28 06:48:58;;;;;;;11.40;7.30;;;18.30;99.90;;;;;;5044340;28;20206;-69
2022/06/28 06:51:25;;;;;;;12.53;7.30;;;18.30;99.90;;;;;;5040309;28;20221;-69
2022/06/28 06:53:52;;;;;;;11.53;6.70;;;18.40;99.90;;;;;;5039734;28;20187;-69
2022/06/28 06:56:18;;;;;;;10.23;6.60;;;18.50;99.90;;;;;;5039368;28;20236;-70
2022/06/28 06:58:45;;;;;;;9.67;6.00;;;18.60;99.90;;;;;;5040035;28;20191;-69
2022/06/28 07:01:12;;;;;;;11.90;6.30;;;18.70;99.90;;;;;;5037319;28;20192;-69
2022/06/28 07:03:59;;;;;;;8.67;6.23;;;18.90;99.90;;;;;;5037840;28;20832;-69
2022/06/28 07:06:26;;;;;;;9.23;5.67;;;19.30;99.90;;;;;;5040621;28;20195;-69
2022/06/28 07:08:52;;;;;;;8.87;5.10;;;19.50;99.90;;;;;;5039235;28;20566;-69
2022/06/28 07:11:19;;;;;;;11.20;4.75;;;20.10;99.90;;;;;;5037415;28;20219;-70
2022/06/28 07:13:46;;;;;;;9.10;5.22;;;20.70;99.90;;;;;;5038542;28;20198;-69
2022/06/28 07:16:12;;;;;;;7.00;4.22;;;21.20;99.90;;;;;;5044584;28;20218;-68
2022/06/28 07:18:40;;;;;;;9.75;4.07;;;22.50;99.90;;;;;;5036758;28;20743;-70
2022/06/28 07:21:06;;;;;;;11.48;3.50;;;23.70;99.90;;;;;;5038138;28;20236;-69
2022/06/28 07:23:33;;;;;;;11.10;4.00;;;24.40;99.90;;;;;;5039952;28;20689;-68
2022/06/28 07:26:00;;;;;;;9.82;3.72;;;24.60;99.90;;;;;;5037625;28;20410;-68
2022/06/28 07:28:27;;;;;;;7.50;3.83;;;24.80;99.90;;;;;;5039418;28;20665;-69
2022/06/28 07:30:53;;;;;;;7.85;3.97;;;24.80;99.90;;;;;;5038587;28;20211;-68
2022/06/28 07:33:20;;;;;;;7.82;3.20;;;24.80;99.90;;;;;;5038290;28;20604;-70
2022/06/28 07:35:47;;;;;;;4.97;3.13;;;24.70;99.90;;;;;;5037456;28;20702;-68
2022/06/28 07:38:14;;;;;;;3.72;3.00;;;24.90;99.90;;;;;;5036549;28;20207;-68
2022/06/28 07:40:40;;;;;;;4.40;3.13;;;24.80;99.90;;;;;;5035693;28;20222;-69
2022/06/28 07:43:07;;;;;;;6.00;2.83;;;24.70;99.90;;;;;;5036837;28;20200;-68
2022/06/28 07:45:36;;;;;;;5.15;2.60;;;24.60;99.90;;;;;;5039387;28;20220;-68
2022/06/28 07:48:04;;;;;;;8.65;3.35;;;25.00;99.90;;;;;;5041886;28;20238;-69
2022/06/28 07:53:17;;;;;;;9.20;3.63;;;25.30;99.90;;;;;;5036543;28;20222;-68
2022/06/28 07:55:43;;;;;;;5.93;2.50;;;25.60;99.90;;;;;;5036187;28;20215;-69
2022/06/28 07:58:10;;;;;;;4.35;2.65;;;25.50;99.90;;;;;;5033904;28;20199;-68
2022/06/28 08:00:37;;;;;;;4.22;2.70;;;25.80;99.90;;;;;;5049698;28;20195;-69
2022/06/28 08:03:05;;;;;;;4.45;2.53;;;25.90;99.90;;;;;;5033193;28;20191;-69
2022/06/28 08:05:31;;;;;;;5.32;2.85;;;26.00;99.90;;;;;;5038329;28;20489;-68
2022/06/28 08:07:58;;;;;;;4.95;2.60;;;26.10;99.90;;;;;;5038501;28;20203;-68
2022/06/28 08:10:25;;;;;;;4.65;2.50;;;26.20;99.90;;;;;;5044683;28;20206;-68
2022/06/28 08:12:51;;;;;;;5.50;2.35;;;26.00;99.90;;;;;;5034087;28;20223;-69
2022/06/28 08:15:18;;;;;;;6.88;3.08;;;25.80;99.90;;;;;;5035462;28;20219;-70
2022/06/28 08:17:45;;;;;;;5.32;2.20;;;25.70;99.90;;;;;;5036515;28;20191;-68
2022/06/28 08:20:11;;;;;;;4.40;2.03;;;25.40;99.90;;;;;;5035705;28;20195;-66
2022/06/28 08:22:38;;;;;;;2.63;1.60;;;25.10;99.90;;;;;;5043816;28;20226;-66
2022/06/28 08:25:06;;;;;;;3.00;2.13;;;24.60;99.90;;;;;;5035679;28;20212;-66
2022/06/28 08:27:33;;;;;;;3.50;2.30;;;24.30;99.90;;;;;;5034611;28;20575;-66
2022/06/28 08:30:00;;;;;;;5.25;2.13;;;24.10;99.90;;;;;;5035349;28;20204;-66
2022/06/28 08:32:26;;;;;;;2.95;1.75;;;23.90;99.90;;;;;;5036265;28;20220;-66
2022/06/28 08:34:53;;;;;;;3.13;1.77;;;23.50;99.90;;;;;;5036153;28;20217;-66
2022/06/28 08:37:20;;;;;;;6.10;1.80;;;23.30;99.90;;;;;;5033151;28;20196;-66
2022/06/28 08:39:47;;;;;;;3.63;2.00;;;23.20;99.90;;;;;;5037035;28;20195;-66
2022/06/28 08:42:18;;;;;;;4.22;2.00;;;23.20;99.90;;;;;;5040096;28;20235;-67
2022/06/28 08:44:47;;;;;;;3.80;1.60;;;23.10;99.90;;;;;;5047457;28;20241;-66
2022/06/28 08:47:15;;;;;;;5.60;1.95;;;23.10;99.90;;;;;;5036756;28;20195;-67
2022/06/28 08:49:56;;;;;;;1.98;1.73;;;22.80;99.90;;;;;;5036629;28;20684;-66
2022/06/28 08:52:25;;;;;;;3.78;1.70;;;23.00;99.90;;;;;;5034768;28;20215;-66
2022/06/28 08:54:52;;;;;;;3.13;1.40;;;23.20;99.90;;;;;;5035788;28;20296;-66
2022/06/28 08:57:20;;;;;;;5.70;1.67;;;23.40;99.90;;;;;;5034140;28;20276;-66
2022/06/28 08:59:48;;;;;;;3.22;1.40;;;23.70;99.90;;;;;;5036246;28;20217;-66
2022/06/28 09:02:16;;;;;;;4.50;1.52;;;23.90;99.90;;;;;;5033946;28;20202;-66
2022/06/28 09:04:49;;;;;;;3.20;1.55;;;24.00;99.90;;;;;;5036451;28;20261;-66
2022/06/28 09:07:16;;;;;;;2.63;1.50;;;24.00;99.90;;;;;;5034239;28;20681;-66
2022/06/28 09:09:43;;;;;;;3.65;1.60;;;24.20;99.90;;;;;;5036018;28;20199;-66
2022/06/28 09:12:10;;;;;;;5.47;2.00;;;24.10;99.90;;;;;;5034017;28;20249;-66
2022/06/28 09:14:37;;;;;;;2.25;1.40;;;24.20;99.90;;;;;;5036102;28;20257;-67
2022/06/28 09:17:29;;;;;;;2.25;1.30;;;24.20;99.90;;;;;;5037067;28;20676;-66
2022/06/28 09:19:59;;;;;;;4.15;1.50;;;24.40;99.90;;;;;;5034177;28;20688;-66
2022/06/28 09:22:43;;;;;;;2.83;1.38;;;24.50;99.90;;;;;;5034129;28;20199;-66
2022/06/28 09:25:25;;;;;;;3.28;1.52;;;24.50;99.90;;;;;;5033417;28;20226;-67
2022/06/28 09:28:01;;;;;;;1.38;1.27;;;24.30;99.90;;;;;;5047739;28;20205;-66
2022/06/28 09:30:30;;;;;;;1.90;1.42;;;24.20;99.90;;;;;;5037332;28;20191;-66
2022/06/28 09:32:58;;;;;;;1.77;1.50;;;24.00;99.90;;;;;;5033703;28;20232;-66
2022/06/28 09:35:25;;;;;;;1.80;1.50;;;23.90;99.90;;;;;;5038649;28;20222;-66
2022/06/28 09:37:55;;;;;;;1.77;1.33;;;24.00;99.90;;;;;;5032688;28;20200;-66
2022/06/28 09:40:36;;;;;;;2.38;1.20;;;23.90;99.90;;;;;;5039617;28;20215;-66
2022/06/28 09:43:12;;;;;;;1.60;1.02;;;23.90;99.90;;;;;;5037008;28;20586;-66
2022/06/28 09:45:46;;;;;;;1.90;1.40;;;24.00;99.90;;;;;;5034806;28;20238;-68
2022/06/28 09:48:17;;;;;;;1.75;1.33;;;23.90;99.90;;;;;;5033334;28;20203;-69
2022/06/28 09:50:44;;;;;;;1.77;1.30;;;24.00;99.90;;;;;;5033076;28;20195;-68
2022/06/28 09:53:15;;;;;;;2.35;1.50;;;24.20;99.90;;;;;;5032018;28;20617;-68
2022/06/28 09:55:43;;;;;;;2.20;1.13;;;24.20;99.90;;;;;;5040505;28;20218;-68
2022/06/28 09:58:09;;;;;;;1.40;1.30;;;24.30;99.90;;;;;;5033577;28;20666;-68
2022/06/28 10:00:39;;;;;;;2.65;1.40;;;24.50;99.90;;;;;;5033330;28;20200;-69
2022/06/28 10:03:07;;;;;;;2.58;1.35;;;24.70;99.90;;;;;;5030253;28;20533;-69
2022/06/28 10:05:34;;;;;;;1.77;1.20;;;24.80;99.90;;;;;;5033752;28;20219;-68
2022/06/28 10:08:01;;;;;;;4.68;1.27;;;24.80;99.90;;;;;;5038567;28;20674;-69
2022/06/28 10:10:29;;;;;;;2.40;1.30;;;24.80;99.90;;;;;;5033467;28;20199;-68
2022/06/28 10:15:56;;;;;;;1.10;1.00;;;25.00;99.90;;;;;;5046822;28;20226;-69
2022/06/28 10:18:25;;;;;;;2.55;1.20;;;24.90;99.90;;;;;;5030353;28;20191;-70
2022/06/28 10:20:51;;;;;;;1.33;1.00;;;24.60;99.90;;;;;;5033612;28;20191;-68
2022/06/28 10:23:33;;;;;;;1.35;1.08;;;24.80;99.90;;;;;;5031953;28;20202;-69
2022/06/28 10:26:06;;;;;;;2.70;0.90;;;25.10;99.90;;;;;;5031569;28;20771;-68
2022/06/28 10:28:43;;;;;;;1.42;1.17;;;25.30;99.90;;;;;;5032809;28;20203;-69
2022/06/28 10:31:40;;;;;;;3.53;1.20;;;25.30;99.90;;;;;;5030272;28;20196;-69
2022/06/28 10:34:42;;;;;;;1.55;1.10;;;25.20;99.90;;;;;;5031821;28;20423;-68
2022/06/28 10:37:09;;;;;;;3.42;1.48;;;25.40;99.90;;;;;;5031321;28;20202;-68
2022/06/28 10:39:36;;;;;;;4.90;1.73;;;25.80;99.90;;;;;;5031148;28;20203;-68
2022/06/28 10:42:11;;;;;;;3.45;1.40;;;25.60;99.90;;;;;;5031367;28;20202;-68
2022/06/28 10:44:38;;;;;;;2.88;1.38;;;25.40;99.90;;;;;;5037122;28;20226;-68
2022/06/28 10:47:04;;;;;;;1.48;1.10;;;25.50;99.90;;;;;;5031431;28;20187;-68
2022/06/28 10:49:44;;;;;;;5.60;1.70;;;25.60;99.90;;;;;;5032001;28;20222;-68
2022/06/28 10:52:27;;;;;;;1.52;1.05;;;25.70;99.90;;;;;;5034272;28;20215;-68
2022/06/28 10:54:56;;;;;;;2.35;1.17;;;25.60;99.90;;;;;;5036593;28;20670;-69
2022/06/28 10:57:24;;;;;;;3.03;1.02;;;25.20;99.90;;;;;;5037771;28;20205;-68
2022/06/28 10:59:53;;;;;;;1.85;1.13;;;25.40;99.90;;;;;;5031830;28;20187;-68
2022/06/28 11:02:20;;;;;;;1.85;1.30;;;25.60;99.90;;;;;;5032780;28;20681;-69
2022/06/28 11:05:05;;;;;;;5.88;1.63;;;25.60;99.90;;;;;;5032308;28;20219;-68
2022/06/28 11:07:34;;;;;;;1.30;1.20;;;25.70;99.90;;;;;;5031924;28;20204;-68
2022/06/28 11:10:08;;;;;;;1.88;1.40;;;25.80;99.90;;;;;;5031197;28;20223;-69
2022/06/28 11:12:42;;;;;;;2.58;1.20;;;25.90;99.90;;;;;;5031781;28;20216;-69
2022/06/28 11:15:39;;;;;;;2.50;1.20;;;25.90;99.90;;;;;;5034277;28;20235;-70
2022/06/28 11:18:16;;;;;;;4.30;1.33;;;25.80;99.90;;;;;;5035804;28;20203;-68
2022/06/28 11:20:43;;;;;;;1.60;1.10;;;25.90;99.90;;;;;;5034300;28;20631;-69
2022/06/28 11:23:25;;;;;;;1.73;1.00;;;26.10;99.90;;;;;;5039436;28;20198;-68
2022/06/28 11:28:56;;;;;;;1.80;1.40;;;26.40;99.90;;;;;;5034093;28;20206;-69
2022/06/28 11:31:25;;;;;;;2.10;1.38;;;26.40;99.90;;;;;;5034119;28;20302;-69
2022/06/28 11:33:52;;;;;;;3.03;1.27;;;26.30;99.90;;;;;;5033392;28;20306;-68
2022/06/28 11:36:30;;;;;;;2.22;1.20;;;26.30;99.90;;;;;;5034060;28;20211;-68
2022/06/28 11:39:23;;;;;;;2.30;1.20;;;26.40;99.90;;;;;;5036880;28;20191;-69
2022/06/28 11:41:54;;;;;;;2.97;1.00;;;26.50;99.90;;;;;;5046270;28;20191;-68
2022/06/28 11:44:23;;;;;;;2.17;1.30;;;26.40;99.90;;;;;;5033858;28;20222;-69
2022/06/28 11:46:51;;;;;;;2.22;1.15;;;26.50;99.90;;;;;;5034149;28;20666;-69
2022/06/28 11:49:32;;;;;;;1.40;1.08;;;26.60;99.90;;;;;;5033728;28;20188;-69
2022/06/28 11:52:00;;;;;;;3.70;1.00;;;26.70;99.90;;;;;;5037014;28;20219;-68
2022/06/28 11:54:27;;;;;;;6.00;1.20;;;26.50;99.90;;;;;;5032714;28;20236;-68
2022/06/28 11:56:54;;;;;;;2.58;1.10;;;26.50;99.90;;;;;;5033191;28;20195;-69
2022/06/28 11:59:52;;;;;;;3.42;1.27;;;26.50;99.90;;;;;;5033061;28;20646;-69
2022/06/28 12:02:38;;;;;;;1.25;1.08;;;26.90;99.90;;;;;;5032461;28;20196;-69
2022/06/28 12:05:05;;;;;;;4.18;1.13;;;26.90;99.90;;;;;;5032443;28;20242;-69
2022/06/28 12:07:34;;;;;;;1.42;1.15;;;26.80;99.90;;;;;;5032232;28;20203;-68
2022/06/28 12:10:00;;;;;;;8.55;1.48;;;26.80;99.90;;;;;;5032272;28;20282;-68
2022/06/28 12:12:27;;;;;;;3.10;1.23;;;27.10;99.90;;;;;;5032481;28;20223;-69
2022/06/28 12:14:58;;;;;;;1.90;1.60;;;27.20;99.90;;;;;;5032603;28;20227;-68
2022/06/28 12:17:25;;;;;;;3.28;1.10;;;27.40;99.90;;;;;;5039734;28;20470;-68
2022/06/28 12:19:52;;;;;;;3.40;1.23;;;27.60;99.90;;;;;;5031751;28;20198;-68
2022/06/28 12:22:23;;;;;;;2.60;1.10;;;27.70;99.80;;;;;;5032207;28;20206;-68
2022/06/28 12:24:55;;;;;;;3.03;1.15;;;27.70;99.80;;;;;;5031725;28;20594;-68
2022/06/28 12:27:24;;;;;;;2.45;1.23;;;27.70;99.70;;;;;;5031951;28;20666;-68
2022/06/28 12:29:52;;;;;;;2.10;1.05;;;27.50;99.80;;;;;;5032012;28;20567;-68
2022/06/28 12:32:19;;;;;;;1.27;0.90;;;27.50;99.90;;;;;;5031629;28;20215;-68
2022/06/28 12:35:08;;;;;;;2.28;1.15;;;27.60;99.20;;;;;;5031599;28;20281;-69
2022/06/28 12:37:36;;;;;;;2.22;1.13;;;27.60;99.80;;;;;;5032024;28;20223;-68
2022/06/28 12:40:04;;;;;;;3.30;1.20;;;27.60;99.80;;;;;;5038504;28;20587;-69
2022/06/28 12:42:32;;;;;;;1.10;1.00;;;27.60;99.20;;;;;;5043564;28;20202;-68
2022/06/28 12:45:02;;;;;;;2.78;1.15;;;27.50;99.60;;;;;;5030994;28;20713;-69
2022/06/28 12:47:36;;;;;;;2.70;1.00;;;27.40;98.50;;;;;;5031468;28;20629;-68
2022/06/28 12:50:05;;;;;;;0.80;0.80;;;27.40;99.00;;;;;;5031096;28;20197;-69
2022/06/28 12:52:36;;;;;;;2.05;0.95;;;27.40;98.30;;;;;;5030491;28;20607;-68
2022/06/28 12:55:04;;;;;;;1.95;0.90;;;27.40;98.50;;;;;;5037202;28;20215;-68
2022/06/28 12:57:30;;;;;;;3.17;1.08;;;27.50;98.40;;;;;;5038898;28;20206;-68
2022/06/28 12:59:57;;;;;;;2.33;1.30;;;27.70;97.70;;;;;;5039217;28;20215;-69
2022/06/28 13:02:24;;;;;;;3.00;1.10;;;27.80;98.50;;;;;;5030761;28;20211;-68
2022/06/28 13:04:51;;;;;;;3.42;1.40;;;27.90;99.30;;;;;;5040635;28;20230;-68
2022/06/28 13:07:22;;;;;;;3.33;1.23;;;27.80;98.50;;;;;;5041795;28;20195;-68
2022/06/28 13:09:49;;;;;;;2.20;1.33;;;27.50;99.00;;;;;;5042922;28;20291;-68